createdAt,value
2023-03-02T00:01:40.453Z,-1.41
2023-03-02T00:04:13.028Z,-1.44
2023-03-02T00:06:40.320Z,-1.49
2023-03-02T00:09:07.514Z,-1.60
2023-03-02T00:11:37.747Z,-1.51
2023-03-02T00:14:05.393Z,-1.51
2023-03-02T00:16:33.121Z,-1.59
2023-03-02T00:19:00.430Z,-1.58
2023-03-02T00:21:27.508Z,-1.49
2023-03-02T00:23:54.560Z,-1.57
2023-03-02T00:26:21.624Z,-1.62
2023-03-02T00:28:48.741Z,-1.45
2023-03-02T00:31:16.072Z,-1.61
2023-03-02T00:33:43.381Z,-1.45
2023-03-02T00:36:20.719Z,-1.36
2023-03-02T00:38:48.246Z,-1.40
2023-03-02T00:41:16.588Z,-1.42
2023-03-02T00:43:43.876Z,-1.44
2023-03-02T00:46:16.019Z,-1.57
2023-03-02T00:48:43.767Z,-1.48
2023-03-02T00:51:11.055Z,-1.46
2023-03-02T00:53:38.229Z,-1.52
2023-03-02T00:56:06.138Z,-1.51
2023-03-02T00:58:36.840Z,-1.79
2023-03-02T01:01:09.730Z,-1.51
2023-03-02T01:03:39.507Z,-1.76
2023-03-02T01:06:14.000Z,-1.85
2023-03-02T01:08:41.032Z,-1.80
2023-03-02T01:11:19.914Z,-1.91
2023-03-02T01:13:47.643Z,-2.01
2023-03-02T01:16:15.319Z,-2.10
2023-03-02T01:18:42.839Z,-2.05
2023-03-02T01:21:12.925Z,-2.10
2023-03-02T01:23:40.009Z,-2.13
2023-03-02T01:26:07.972Z,-2.20
2023-03-02T01:28:34.972Z,-2.06
2023-03-02T01:31:03.377Z,-2.16
2023-03-02T01:33:31.394Z,-2.41
2023-03-02T01:35:58.459Z,-2.03
2023-03-02T01:38:25.754Z,-2.03
2023-03-02T01:40:52.922Z,-2.06
2023-03-02T01:43:20.241Z,-2.16
2023-03-02T01:46:08.435Z,-2.06
2023-03-02T01:49:13.790Z,-2.06
2023-03-02T01:52:00.486Z,-2.15
2023-03-02T01:54:27.954Z,-2.15
2023-03-02T01:57:02.525Z,-2.14
2023-03-02T01:59:31.941Z,-2.11
2023-03-02T02:02:01.847Z,-2.11
2023-03-02T02:04:31.204Z,-2.09
2023-03-02T02:07:03.587Z,-2.12
2023-03-02T02:09:34.873Z,-2.08
2023-03-02T02:12:02.619Z,-2.12
2023-03-02T02:14:29.854Z,-2.01
2023-03-02T02:16:56.954Z,-1.98
2023-03-02T02:19:26.696Z,-2.03
2023-03-02T02:21:53.778Z,-2.08
2023-03-02T02:24:46.815Z,-1.91
2023-03-02T02:27:15.049Z,-1.90
2023-03-02T02:29:49.751Z,-1.93
2023-03-02T02:32:22.130Z,-1.87
2023-03-02T02:35:02.769Z,-1.83
2023-03-02T02:37:42.082Z,-2.00
2023-03-02T02:40:17.685Z,-1.90
2023-03-02T02:42:50.467Z,-1.90
2023-03-02T02:45:26.409Z,-2.03
2023-03-02T02:47:55.696Z,-1.96
2023-03-02T02:50:30.987Z,-2.13
2023-03-02T02:53:04.048Z,-2.10
2023-03-02T02:55:33.570Z,-2.10
2023-03-02T02:58:10.112Z,-2.22
2023-03-02T03:00:38.573Z,-2.09
2023-03-02T03:03:29.435Z,-2.08
2023-03-02T03:06:00.896Z,-2.09
2023-03-02T03:08:46.293Z,-2.04
2023-03-02T03:11:23.778Z,-2.10
2023-03-02T03:13:57.511Z,-2.28
2023-03-02T03:16:28.228Z,-2.17
2023-03-02T03:18:58.781Z,-2.17
2023-03-02T03:21:25.842Z,-2.12
2023-03-02T03:23:53.863Z,-2.16
2023-03-02T03:26:20.963Z,-2.14
2023-03-02T03:28:48.748Z,-2.13
2023-03-02T03:31:16.471Z,-2.11
2023-03-02T03:33:43.805Z,-2.10
2023-03-02T03:36:11.030Z,-2.15
2023-03-02T03:38:38.779Z,-2.15
2023-03-02T03:41:05.834Z,-2.15
2023-03-02T03:43:32.900Z,-2.20
2023-03-02T03:45:59.948Z,-2.18
2023-03-02T03:48:27.022Z,-2.26
2023-03-02T03:50:54.105Z,-2.26
2023-03-02T03:53:21.364Z,-2.36
2023-03-02T03:55:48.530Z,-2.22
2023-03-02T03:58:15.587Z,-2.23
2023-03-02T04:00:42.736Z,-2.29
2023-03-02T04:03:11.532Z,-2.18
2023-03-02T04:05:38.550Z,-2.25
2023-03-02T04:08:06.172Z,-2.27
2023-03-02T04:10:34.190Z,-2.26
2023-03-02T04:13:02.396Z,-2.24
2023-03-02T04:15:29.982Z,-2.34
2023-03-02T04:17:59.561Z,-2.38
2023-03-02T04:20:28.346Z,-2.49
2023-03-02T04:22:57.627Z,-2.37
2023-03-02T04:25:27.925Z,-2.35
2023-03-02T04:27:59.522Z,-2.41
2023-03-02T04:30:29.759Z,-2.41
2023-03-02T04:32:57.756Z,-2.39
2023-03-02T04:35:27.969Z,-2.33
2023-03-02T04:37:55.579Z,-2.30
2023-03-02T04:40:22.749Z,-2.40
2023-03-02T04:42:49.724Z,-2.32
2023-03-02T04:45:16.948Z,-2.21
2023-03-02T04:47:44.088Z,-2.17
2023-03-02T04:50:13.758Z,-2.18
2023-03-02T04:52:41.980Z,-2.16
2023-03-02T04:55:09.571Z,-2.22
2023-03-02T04:57:36.632Z,-2.19
2023-03-02T05:00:05.080Z,-2.19
2023-03-02T05:02:32.596Z,-2.17
2023-03-02T05:04:59.676Z,-2.14
2023-03-02T05:07:26.901Z,-2.12
2023-03-02T05:09:53.898Z,-2.14
2023-03-02T05:12:21.858Z,-2.07
2023-03-02T05:14:48.968Z,-2.07
2023-03-02T05:17:16.442Z,-2.04
2023-03-02T05:19:43.475Z,-2.06
2023-03-02T05:22:10.518Z,-2.07
2023-03-02T05:24:38.136Z,-2.06
2023-03-02T05:27:05.140Z,-2.04
2023-03-02T05:29:32.107Z,-2.06
2023-03-02T05:31:59.145Z,-1.97
2023-03-02T05:34:26.182Z,-1.98
2023-03-02T05:36:53.311Z,-1.92
2023-03-02T05:39:20.330Z,-1.86
2023-03-02T05:41:47.299Z,-1.86
2023-03-02T05:44:14.353Z,-1.86
2023-03-02T05:46:41.834Z,-1.84
2023-03-02T05:49:09.129Z,-1.82
2023-03-02T05:51:36.194Z,-1.82
2023-03-02T05:54:03.240Z,-1.75
2023-03-02T05:56:30.444Z,-1.64
2023-03-02T05:58:57.513Z,-1.60
2023-03-02T06:01:24.528Z,-1.48
2023-03-02T06:03:51.536Z,-1.45
2023-03-02T06:06:18.686Z,-1.34
2023-03-02T06:08:45.731Z,-1.09
2023-03-02T06:11:13.237Z,-1.06
2023-03-02T06:13:40.843Z,-0.88
2023-03-02T06:16:09.138Z,-0.72
2023-03-02T06:18:39.187Z,-0.56
2023-03-02T06:21:07.621Z,-0.49
2023-03-02T06:23:34.713Z,-0.32
2023-03-02T06:26:08.422Z,-0.25
2023-03-02T06:28:49.714Z,-0.39
2023-03-02T06:31:18.900Z,-0.19
2023-03-02T06:33:45.942Z,-0.18
2023-03-02T06:36:13.075Z,-0.09
2023-03-02T06:38:40.188Z,-0.04
2023-03-02T06:41:07.190Z,-0.03
2023-03-02T06:43:34.175Z,-0.04
2023-03-02T06:46:01.213Z,-0.20
2023-03-02T06:48:28.326Z,-0.24
2023-03-02T06:50:55.324Z,-0.15
2023-03-02T06:53:23.621Z,-0.15
2023-03-02T06:55:51.107Z,-0.19
2023-03-02T06:58:18.177Z,-0.34
2023-03-02T07:00:45.229Z,-0.45
2023-03-02T07:03:12.211Z,-0.31
2023-03-02T07:05:39.213Z,-0.32
2023-03-02T07:08:06.255Z,-0.24
2023-03-02T07:10:33.484Z,-0.41
2023-03-02T07:13:00.672Z,-0.12
2023-03-02T07:15:27.687Z,-0.06
2023-03-02T07:17:54.750Z,-0.05
2023-03-02T07:20:21.917Z,-0.09
2023-03-02T07:22:49.009Z,-0.08
2023-03-02T07:25:15.991Z,-0.06
2023-03-02T07:27:43.401Z,0.16
2023-03-02T07:30:11.285Z,0.26
2023-03-02T07:32:38.385Z,0.29
2023-03-02T07:35:05.733Z,0.30
2023-03-02T07:37:32.957Z,0.30
2023-03-02T07:40:00.935Z,0.26
2023-03-02T07:42:28.246Z,0.29
2023-03-02T07:44:58.001Z,0.43
2023-03-02T07:47:25.500Z,0.36
2023-03-02T07:49:52.598Z,0.34
2023-03-02T07:52:19.694Z,0.29
2023-03-02T07:54:46.716Z,0.35
2023-03-02T07:57:16.354Z,0.22
2023-03-02T07:59:43.979Z,0.29
2023-03-02T08:02:15.298Z,0.33
2023-03-02T08:04:43.018Z,0.40
2023-03-02T08:07:10.240Z,0.50
2023-03-02T08:09:38.713Z,0.54
2023-03-02T08:12:05.900Z,0.76
2023-03-02T08:14:32.940Z,0.79
2023-03-02T08:16:59.948Z,0.87
2023-03-02T08:19:27.062Z,1.00
2023-03-02T08:21:54.129Z,1.03
2023-03-02T08:24:21.185Z,1.16
2023-03-02T08:26:48.172Z,1.48
2023-03-02T08:29:15.190Z,2.23
2023-03-02T08:31:42.273Z,3.00
2023-03-02T08:34:09.324Z,3.52
2023-03-02T08:36:36.393Z,3.66
2023-03-02T08:39:03.381Z,3.39
2023-03-02T08:41:30.815Z,3.06
2023-03-02T08:43:58.019Z,2.80
2023-03-02T08:46:25.014Z,2.68
2023-03-02T08:48:52.218Z,2.35
2023-03-02T08:51:24.797Z,2.23
2023-03-02T08:53:55.455Z,1.95
2023-03-02T08:56:29.013Z,1.88
2023-03-02T08:58:59.000Z,1.85
2023-03-02T09:01:29.931Z,1.75
2023-03-02T09:03:59.892Z,1.46
2023-03-02T09:06:32.106Z,0.98
2023-03-02T09:08:59.881Z,1.12
2023-03-02T09:11:27.922Z,1.04
2023-03-02T09:13:55.158Z,1.07
2023-03-02T09:16:24.342Z,1.00
2023-03-02T09:18:51.999Z,0.86
2023-03-02T09:21:19.713Z,0.92
2023-03-02T09:23:46.971Z,0.97
2023-03-02T09:26:14.050Z,0.95
2023-03-02T09:28:41.125Z,0.91
2023-03-02T09:31:09.130Z,0.88
2023-03-02T09:33:36.654Z,0.86
2023-03-02T09:36:08.282Z,0.84
2023-03-02T09:38:35.395Z,0.98
2023-03-02T09:41:08.426Z,1.04
2023-03-02T09:43:38.138Z,1.01
2023-03-02T09:46:17.765Z,1.18
2023-03-02T09:48:49.446Z,1.11
2023-03-02T09:51:33.691Z,1.38
2023-03-02T09:54:09.028Z,1.39
2023-03-02T09:56:57.877Z,1.50
2023-03-02T09:59:27.108Z,1.66
2023-03-02T10:02:03.123Z,1.65
2023-03-02T10:04:38.837Z,1.67
2023-03-02T10:07:15.105Z,1.71
2023-03-02T10:09:43.003Z,1.70
2023-03-02T10:12:22.002Z,1.67
2023-03-02T10:15:31.448Z,1.67
2023-03-02T10:18:12.592Z,1.66
2023-03-02T10:21:05.618Z,1.81
2023-03-02T10:24:14.159Z,2.00
2023-03-02T10:26:48.460Z,2.01
2023-03-02T10:29:42.888Z,2.14
2023-03-02T10:32:21.214Z,2.05
2023-03-02T10:34:50.318Z,1.92
2023-03-02T10:37:23.121Z,1.81
2023-03-02T10:39:50.232Z,1.70
2023-03-02T10:42:43.366Z,1.82
2023-03-02T10:45:31.183Z,1.79
2023-03-02T10:48:09.629Z,1.73
2023-03-02T10:50:37.740Z,1.98
2023-03-02T10:53:08.833Z,2.04
2023-03-02T10:55:35.917Z,2.01
2023-03-02T10:58:21.165Z,2.15
2023-03-02T11:01:05.716Z,2.26
2023-03-02T11:03:33.982Z,2.11
2023-03-02T11:06:17.864Z,2.16
2023-03-02T11:08:44.875Z,2.03
2023-03-02T11:11:23.335Z,1.92
2023-03-02T11:13:51.248Z,1.91
2023-03-02T11:16:18.258Z,1.80
2023-03-02T11:19:14.352Z,2.00
2023-03-02T11:21:44.880Z,2.22
2023-03-02T11:24:22.063Z,2.23
2023-03-02T11:26:54.975Z,2.14
2023-03-02T11:29:42.946Z,1.97
2023-03-02T11:32:38.952Z,1.79
2023-03-02T11:35:09.137Z,1.73
2023-03-02T11:38:15.534Z,1.73
2023-03-02T11:40:51.537Z,1.73
2023-03-02T11:43:18.626Z,1.62
2023-03-02T11:45:48.389Z,1.54
2023-03-02T11:48:15.320Z,1.43
2023-03-02T11:51:06.875Z,1.45
2023-03-02T11:53:43.281Z,1.36
2023-03-02T11:56:10.862Z,1.26
2023-03-02T11:58:39.490Z,1.21
2023-03-02T12:01:15.742Z,1.19
2023-03-02T12:03:45.039Z,1.18
2023-03-02T12:06:14.821Z,1.30
2023-03-02T12:08:44.511Z,1.17
2023-03-02T12:11:17.507Z,1.30
2023-03-02T12:13:57.592Z,1.08
2023-03-02T12:16:37.938Z,1.20
2023-03-02T12:19:17.143Z,1.25
2023-03-02T12:21:55.995Z,1.20
2023-03-02T12:24:32.645Z,0.69
2023-03-02T12:27:25.780Z,1.14
2023-03-02T12:30:11.312Z,1.13
2023-03-02T12:32:38.471Z,1.08
2023-03-02T12:35:08.243Z,0.96
2023-03-02T12:37:58.279Z,1.13
2023-03-02T12:40:56.107Z,1.16
2023-03-02T12:43:34.653Z,1.21
2023-03-02T12:46:33.764Z,1.21
2023-03-02T12:49:25.509Z,1.04
2023-03-02T12:52:03.961Z,0.97
2023-03-02T12:54:34.158Z,0.97
2023-03-02T12:57:19.323Z,0.93
2023-03-02T12:59:58.501Z,0.86
2023-03-02T13:02:47.426Z,0.89
2023-03-02T13:05:23.875Z,0.88
2023-03-02T13:08:04.455Z,0.84
2023-03-02T13:10:38.629Z,0.64
2023-03-02T13:13:25.794Z,0.70
2023-03-02T13:15:54.167Z,0.74
2023-03-02T13:18:22.667Z,0.69
2023-03-02T13:20:50.988Z,0.74
2023-03-02T13:23:19.267Z,0.53
2023-03-02T13:25:57.384Z,0.56
2023-03-02T13:28:30.395Z,0.62
2023-03-02T13:31:23.221Z,0.67
2023-03-02T13:33:52.657Z,0.50
2023-03-02T13:36:25.677Z,0.50
2023-03-02T13:38:56.046Z,0.42
2023-03-02T13:41:28.559Z,0.57
2023-03-02T13:43:56.205Z,0.52
2023-03-02T13:46:23.227Z,0.54
2023-03-02T13:49:10.229Z,0.47
2023-03-02T13:51:44.200Z,0.50
2023-03-02T13:54:25.270Z,0.40
2023-03-02T13:56:53.926Z,0.47
2023-03-02T13:59:22.336Z,0.44
2023-03-02T14:01:49.654Z,0.35
2023-03-02T14:04:19.087Z,0.31
2023-03-02T14:06:46.684Z,0.20
2023-03-02T14:09:14.561Z,0.29
2023-03-02T14:11:44.716Z,0.21
2023-03-02T14:14:18.103Z,0.26
2023-03-02T14:16:45.225Z,0.25
2023-03-02T14:19:18.603Z,0.24
2023-03-02T14:21:46.893Z,0.25
2023-03-02T14:24:14.506Z,0.21
2023-03-02T14:26:47.317Z,0.20
2023-03-02T14:29:14.241Z,0.26
2023-03-02T14:31:41.304Z,0.23
2023-03-02T14:34:16.016Z,0.21
2023-03-02T14:36:46.330Z,0.15
2023-03-02T14:39:30.632Z,0.16
2023-03-02T14:41:57.854Z,-0.01
2023-03-02T14:44:25.171Z,0.04
2023-03-02T14:46:53.240Z,0.08
2023-03-02T14:49:20.728Z,0.10
2023-03-02T14:51:59.824Z,0.03
2023-03-02T14:54:30.653Z,-0.02
2023-03-02T14:56:57.691Z,0.01
2023-03-02T14:59:24.708Z,-0.09
2023-03-02T15:01:51.745Z,-0.03
2023-03-02T15:04:18.839Z,0.05
2023-03-02T15:06:46.302Z,-0.05
2023-03-02T15:09:13.422Z,-0.01
2023-03-02T15:11:40.475Z,-0.03
2023-03-02T15:14:07.453Z,0.01
2023-03-02T15:16:34.495Z,0.00
2023-03-02T15:19:01.570Z,0.04
2023-03-02T15:21:28.683Z,0.06
2023-03-02T15:23:55.777Z,0.07
2023-03-02T15:26:22.861Z,0.01
2023-03-02T15:28:51.836Z,-0.13
2023-03-02T15:31:19.787Z,0.05
2023-03-02T15:33:46.942Z,0.01
2023-03-02T15:36:14.392Z,0.15
2023-03-02T15:38:41.734Z,0.07
2023-03-02T15:41:13.921Z,0.04
2023-03-02T15:43:41.213Z,0.01
2023-03-02T15:46:12.361Z,0.04
2023-03-02T15:48:39.382Z,0.13
2023-03-02T15:51:08.398Z,0.13
2023-03-02T15:53:38.246Z,0.06
2023-03-02T15:56:12.364Z,0.05
2023-03-02T15:58:40.488Z,0.07
2023-03-02T16:01:08.992Z,0.04
2023-03-02T16:03:36.682Z,0.08
2023-03-02T16:06:04.010Z,0.01
2023-03-02T16:08:31.348Z,-0.02
2023-03-02T16:11:00.474Z,-0.01
2023-03-02T16:13:30.035Z,0.02
2023-03-02T16:15:57.453Z,0.01
2023-03-02T16:18:24.440Z,0.06
2023-03-02T16:20:51.419Z,0.08
2023-03-02T16:23:18.473Z,-0.03
2023-03-02T16:25:47.588Z,0.10
2023-03-02T16:28:16.890Z,-0.05
2023-03-02T16:30:44.481Z,0.04
2023-03-02T16:33:17.147Z,0.13
2023-03-02T16:35:44.745Z,0.04
2023-03-02T16:38:11.857Z,0.07
2023-03-02T16:40:40.290Z,-0.02
2023-03-02T16:43:10.617Z,-0.02
2023-03-02T16:45:37.938Z,-0.16
2023-03-02T16:48:06.573Z,-0.08
2023-03-02T16:50:33.821Z,0.04
2023-03-02T16:53:01.010Z,0.07
2023-03-02T16:55:28.285Z,0.12
2023-03-02T16:57:55.712Z,0.07
2023-03-02T17:00:23.607Z,0.05
2023-03-02T17:02:51.575Z,-0.01
2023-03-02T17:05:20.512Z,0.08
2023-03-02T17:07:47.767Z,0.05
2023-03-02T17:10:20.267Z,0.06
2023-03-02T17:12:47.422Z,0.12
2023-03-02T17:15:14.512Z,0.06
2023-03-02T17:17:41.919Z,0.16
2023-03-02T17:20:10.517Z,0.22
2023-03-02T17:22:37.766Z,0.11
2023-03-02T17:25:05.181Z,-0.10
2023-03-02T17:27:32.399Z,0.18
2023-03-02T17:29:59.522Z,0.16
2023-03-02T17:32:26.714Z,0.27
2023-03-02T17:34:53.930Z,0.28
2023-03-02T17:37:21.121Z,0.33
2023-03-02T17:39:51.302Z,0.33
2023-03-02T17:42:19.409Z,0.29
2023-03-02T17:44:46.449Z,0.33
2023-03-02T17:47:15.149Z,0.35
2023-03-02T17:49:45.857Z,0.35
2023-03-02T17:52:14.437Z,0.36
2023-03-02T17:54:42.122Z,0.42
2023-03-02T17:57:09.620Z,0.37
2023-03-02T17:59:36.886Z,0.39
2023-03-02T18:02:04.145Z,0.46
2023-03-02T18:04:31.192Z,0.51
2023-03-02T18:06:58.255Z,0.21
2023-03-02T18:09:26.851Z,0.56
2023-03-02T18:11:53.821Z,0.57
2023-03-02T18:14:21.653Z,0.61
2023-03-02T18:16:48.734Z,0.65
2023-03-02T18:19:16.005Z,0.70
2023-03-02T18:21:43.052Z,0.71
2023-03-02T18:24:10.099Z,0.71
2023-03-02T18:26:37.696Z,0.67
2023-03-02T18:29:05.303Z,0.77
2023-03-02T18:31:34.466Z,0.71
2023-03-02T18:34:03.023Z,0.78
2023-03-02T18:36:30.327Z,0.77
2023-03-02T18:38:57.352Z,0.55
2023-03-02T18:41:25.112Z,0.83
2023-03-02T18:43:52.588Z,0.74
2023-03-02T18:46:26.742Z,0.88
2023-03-02T18:48:54.856Z,0.90
2023-03-02T18:51:23.815Z,0.92
2023-03-02T18:53:51.557Z,0.97
2023-03-02T18:56:18.985Z,0.97
2023-03-02T18:58:46.236Z,0.92
2023-03-02T19:01:13.443Z,1.00
2023-03-02T19:03:41.955Z,1.00
2023-03-02T19:06:09.411Z,0.92
2023-03-02T19:08:36.778Z,1.00
2023-03-02T19:11:05.893Z,0.99
2023-03-02T19:13:33.537Z,0.98
2023-03-02T19:16:02.189Z,1.00
2023-03-02T19:18:30.153Z,0.97
2023-03-02T19:20:57.868Z,1.02
2023-03-02T19:23:25.384Z,1.06
2023-03-02T19:25:53.043Z,0.97
2023-03-02T19:28:21.827Z,0.92
2023-03-02T19:30:49.793Z,1.12
2023-03-02T19:33:17.888Z,1.08
2023-03-02T19:35:45.300Z,0.85
2023-03-02T19:38:12.901Z,1.18
2023-03-02T19:40:40.499Z,1.12
2023-03-02T19:43:07.680Z,1.08
2023-03-02T19:45:35.869Z,1.18
2023-03-02T19:48:04.072Z,1.14
2023-03-02T19:50:31.750Z,1.22
2023-03-02T19:52:59.184Z,1.22
2023-03-02T19:55:27.386Z,1.21
2023-03-02T19:58:00.241Z,1.19
2023-03-02T20:00:29.369Z,0.95
2023-03-02T20:02:56.857Z,1.25
2023-03-02T20:05:26.073Z,1.18
2023-03-02T20:07:53.762Z,1.13
2023-03-02T20:10:30.336Z,1.28
2023-03-02T20:12:59.490Z,1.25
2023-03-02T20:15:31.889Z,1.25
2023-03-02T20:18:02.552Z,1.22
2023-03-02T20:20:30.998Z,1.19
2023-03-02T20:23:00.214Z,1.24
2023-03-02T20:25:28.445Z,1.22
2023-03-02T20:27:57.424Z,1.18
2023-03-02T20:30:29.316Z,1.16
2023-03-02T20:32:57.995Z,1.19
2023-03-02T20:35:26.153Z,1.17
2023-03-02T20:37:54.945Z,1.18
2023-03-02T20:40:23.365Z,1.18
2023-03-02T20:42:50.427Z,1.21
2023-03-02T20:45:17.635Z,1.20
2023-03-02T20:47:44.835Z,1.21
2023-03-02T20:50:16.377Z,1.17
2023-03-02T20:52:43.491Z,1.12
2023-03-02T20:55:11.983Z,1.14
2023-03-02T20:57:39.877Z,1.13
2023-03-02T21:00:11.951Z,1.08
2023-03-02T21:02:38.992Z,1.07
2023-03-02T21:05:06.755Z,1.14
2023-03-02T21:07:35.957Z,1.12
2023-03-02T21:10:07.955Z,1.13
2023-03-02T21:12:35.507Z,1.12
2023-03-02T21:15:03.952Z,1.09
2023-03-02T21:17:31.694Z,1.18
2023-03-02T21:19:58.681Z,1.19
2023-03-02T21:22:25.873Z,1.07
2023-03-02T21:24:55.980Z,1.16
2023-03-02T21:27:23.142Z,1.22
2023-03-02T21:29:50.229Z,1.21
2023-03-02T21:32:17.646Z,1.20
2023-03-02T21:34:45.079Z,1.16
2023-03-02T21:37:12.156Z,1.21
2023-03-02T21:39:39.175Z,1.18
2023-03-02T21:42:06.294Z,1.08
2023-03-02T21:44:33.349Z,1.06
2023-03-02T21:47:00.373Z,1.09
2023-03-02T21:49:27.445Z,1.03
2023-03-02T21:51:54.449Z,1.02
2023-03-02T21:54:21.520Z,0.97
2023-03-02T21:56:48.513Z,0.85
2023-03-02T21:59:15.535Z,0.72
2023-03-02T22:01:42.706Z,0.63
2023-03-02T22:04:09.725Z,0.72
2023-03-02T22:06:37.789Z,0.65
2023-03-02T22:09:05.038Z,0.63
2023-03-02T22:11:36.894Z,0.62
2023-03-02T22:14:16.275Z,0.49
2023-03-02T22:16:47.488Z,0.37
2023-03-02T22:19:31.357Z,0.50
2023-03-02T22:22:00.448Z,0.32
2023-03-02T22:24:30.522Z,0.34
2023-03-02T22:27:20.979Z,0.46
2023-03-02T22:29:48.990Z,0.49
2023-03-02T22:32:25.649Z,0.48
2023-03-02T22:34:59.619Z,0.54
2023-03-02T22:37:28.875Z,0.21
2023-03-02T22:40:00.980Z,0.51
2023-03-02T22:42:30.679Z,0.53
2023-03-02T22:45:13.040Z,0.65
2023-03-02T22:47:40.174Z,0.67
2023-03-02T22:50:29.078Z,0.72
2023-03-02T22:52:57.840Z,0.68
2023-03-02T22:55:34.021Z,0.68
2023-03-02T22:58:22.354Z,0.71
2023-03-02T23:00:49.444Z,0.65
2023-03-02T23:03:18.879Z,0.25
2023-03-02T23:05:49.294Z,0.67
2023-03-02T23:08:25.094Z,0.69
2023-03-02T23:10:54.240Z,0.64
2023-03-02T23:13:26.933Z,0.66
2023-03-02T23:15:55.144Z,0.67
2023-03-02T23:18:28.833Z,0.73
2023-03-02T23:20:56.387Z,0.62
2023-03-02T23:23:24.809Z,0.45
2023-03-02T23:25:51.928Z,0.85
2023-03-02T23:28:18.929Z,0.90
2023-03-02T23:30:45.907Z,0.80
2023-03-02T23:33:12.935Z,0.91
2023-03-02T23:35:40.049Z,0.91
2023-03-02T23:38:07.055Z,0.95
2023-03-02T23:40:34.635Z,1.04
2023-03-02T23:43:01.657Z,1.06
2023-03-02T23:45:28.720Z,1.08
2023-03-02T23:47:55.690Z,1.07
2023-03-02T23:50:22.716Z,1.09
2023-03-02T23:52:49.706Z,1.12
2023-03-02T23:55:16.912Z,1.15
2023-03-02T23:57:43.876Z,1.20
